createdAt,value
2019-03-23T00:00:51.881Z,29.40
2019-03-23T00:03:19.271Z,26.27
2019-03-23T00:05:46.688Z,30.13
2019-03-23T00:08:14.151Z,25.80
2019-03-23T00:10:41.569Z,29.50
2019-03-23T00:13:08.958Z,25.13
2019-03-23T00:15:36.378Z,29.67
2019-03-23T00:18:03.757Z,24.37
2019-03-23T00:20:31.181Z,29.43
2019-03-23T00:22:58.567Z,28.90
2019-03-23T00:25:25.995Z,34.20
2019-03-23T00:27:53.445Z,27.20
2019-03-23T00:30:20.857Z,27.30
2019-03-23T00:32:48.246Z,25.67
2019-03-23T00:35:15.656Z,27.13
2019-03-23T00:37:43.050Z,27.87
2019-03-23T00:40:10.540Z,24.43
2019-03-23T00:42:37.932Z,25.50
2019-03-23T00:45:05.899Z,29.43
2019-03-23T00:47:33.283Z,26.70
2019-03-23T00:50:00.702Z,25.90
2019-03-23T00:52:28.101Z,31.23
2019-03-23T00:54:55.525Z,27.10
2019-03-23T00:57:22.912Z,26.40
2019-03-23T00:59:50.337Z,29.30
2019-03-23T01:02:17.788Z,27.90
2019-03-23T01:04:45.205Z,28.30
2019-03-23T01:07:12.599Z,23.63
2019-03-23T01:09:39.993Z,33.63
2019-03-23T01:12:07.420Z,27.03
2019-03-23T01:14:34.807Z,31.43
2019-03-23T01:17:02.220Z,27.00
2019-03-23T01:19:29.609Z,20.90
2019-03-23T01:21:57.030Z,27.33
2019-03-23T01:24:24.410Z,28.30
2019-03-23T01:26:51.829Z,27.30
2019-03-23T01:29:19.218Z,30.60
2019-03-23T01:31:46.643Z,49.23
2019-03-23T01:34:14.025Z,26.63
2019-03-23T01:36:41.445Z,30.33
2019-03-23T01:39:08.825Z,29.40
2019-03-23T01:41:36.242Z,27.97
2019-03-23T01:44:03.632Z,26.80
2019-03-23T01:46:31.050Z,29.87
2019-03-23T01:48:58.429Z,27.23
2019-03-23T01:51:25.844Z,28.83
2019-03-23T01:53:53.233Z,30.60
2019-03-23T01:56:20.718Z,31.27
2019-03-23T01:58:48.114Z,25.10
2019-03-23T02:01:15.540Z,24.90
2019-03-23T02:03:42.924Z,31.23
2019-03-23T02:06:10.605Z,27.77
2019-03-23T02:08:37.992Z,28.13
2019-03-23T02:11:05.404Z,26.90
2019-03-23T02:13:32.794Z,23.83
2019-03-23T02:16:00.186Z,28.63
2019-03-23T02:18:27.675Z,28.73
2019-03-23T02:20:55.932Z,27.73
2019-03-23T02:23:23.345Z,26.03
2019-03-23T02:25:51.625Z,33.83
2019-03-23T02:28:19.048Z,32.80
2019-03-23T02:30:46.434Z,28.83
2019-03-23T02:33:13.850Z,27.90
2019-03-23T02:35:41.249Z,36.43
2019-03-23T02:38:08.667Z,26.87
2019-03-23T02:40:36.060Z,27.13
2019-03-23T02:43:03.479Z,28.23
2019-03-23T02:45:30.868Z,29.03
2019-03-23T02:47:58.286Z,27.30
2019-03-23T02:50:25.701Z,30.40
2019-03-23T02:52:53.090Z,30.03
2019-03-23T02:55:20.485Z,33.80
2019-03-23T02:57:47.904Z,30.83
2019-03-23T03:00:15.955Z,32.57
2019-03-23T03:02:43.375Z,29.00
2019-03-23T03:05:10.838Z,26.70
2019-03-23T03:07:42.429Z,31.17
2019-03-23T03:10:08.845Z,29.47
2019-03-23T03:12:36.261Z,32.67
2019-03-23T03:15:05.120Z,31.70
2019-03-23T03:17:32.537Z,25.17
2019-03-23T03:19:59.931Z,30.70
2019-03-23T03:22:27.340Z,29.10
2019-03-23T03:24:54.729Z,28.63
2019-03-23T03:27:22.144Z,30.90
2019-03-23T03:29:49.543Z,31.53
2019-03-23T03:32:16.970Z,32.80
2019-03-23T03:34:44.344Z,31.00
2019-03-23T03:37:11.759Z,35.03
2019-03-23T03:39:39.146Z,28.80
2019-03-23T03:42:06.629Z,26.63
2019-03-23T03:44:34.023Z,36.13
2019-03-23T03:47:01.430Z,33.00
2019-03-23T03:49:28.821Z,25.20
2019-03-23T03:51:56.254Z,30.53
2019-03-23T03:54:23.638Z,32.50
2019-03-23T03:56:51.025Z,27.03
2019-03-23T03:59:18.441Z,26.27
2019-03-23T04:01:45.827Z,28.63
2019-03-23T04:04:13.247Z,28.67
2019-03-23T04:06:40.643Z,29.47
2019-03-23T04:09:08.054Z,27.90
2019-03-23T04:11:35.436Z,39.90
2019-03-23T04:14:02.847Z,28.53
2019-03-23T04:16:30.242Z,30.13
2019-03-23T04:18:57.668Z,25.07
2019-03-23T04:21:25.060Z,29.80
2019-03-23T04:23:52.468Z,28.97
2019-03-23T04:26:19.912Z,27.90
2019-03-23T04:28:47.286Z,25.77
2019-03-23T04:31:14.693Z,27.27
2019-03-23T04:33:42.101Z,27.00
2019-03-23T04:36:09.555Z,30.37
2019-03-23T04:38:36.974Z,25.50
2019-03-23T04:41:04.355Z,33.17
2019-03-23T04:43:31.770Z,27.30
2019-03-23T04:45:59.157Z,25.87
2019-03-23T04:48:26.569Z,36.53
2019-03-23T04:50:53.961Z,29.97
2019-03-23T04:53:21.377Z,31.43
2019-03-23T04:55:48.765Z,28.60
2019-03-23T04:58:16.178Z,35.97
2019-03-23T05:00:43.564Z,39.50
2019-03-23T05:03:10.985Z,32.83
2019-03-23T05:05:38.368Z,27.83
2019-03-23T05:08:05.786Z,32.47
2019-03-23T05:10:33.178Z,26.77
2019-03-23T05:13:00.597Z,26.47
2019-03-23T05:15:27.990Z,26.77
2019-03-23T05:17:55.415Z,33.20
2019-03-23T05:20:26.896Z,29.37
2019-03-23T05:22:54.356Z,30.77
2019-03-23T05:25:25.639Z,36.13
2019-03-23T05:27:53.028Z,40.80
2019-03-23T05:30:20.450Z,36.42
2019-03-23T05:32:47.833Z,32.13
2019-03-23T05:35:15.257Z,30.23
2019-03-23T05:37:42.736Z,30.63
2019-03-23T05:40:10.219Z,31.87
2019-03-23T05:42:37.601Z,43.33
2019-03-23T05:45:05.977Z,31.60
2019-03-23T05:47:33.362Z,29.30
2019-03-23T05:50:00.774Z,28.50
2019-03-23T05:52:28.170Z,33.40
2019-03-23T05:54:55.576Z,32.47
2019-03-23T05:57:22.965Z,25.60
2019-03-23T05:59:50.381Z,31.73
2019-03-23T06:02:17.774Z,27.33
2019-03-23T06:04:45.193Z,34.70
2019-03-23T06:07:12.581Z,35.93
2019-03-23T06:09:40.001Z,29.00
2019-03-23T06:12:07.391Z,27.90
2019-03-23T06:14:34.817Z,31.83
2019-03-23T06:17:02.196Z,28.30
2019-03-23T06:19:29.616Z,30.33
2019-03-23T06:21:57.014Z,32.10
2019-03-23T06:24:24.420Z,28.37
2019-03-23T06:26:51.808Z,31.20
2019-03-23T06:29:19.233Z,30.10
2019-03-23T06:31:46.694Z,35.30
2019-03-23T06:34:14.106Z,32.10
2019-03-23T06:36:41.498Z,30.80
2019-03-23T06:39:08.917Z,28.80
2019-03-23T06:41:36.305Z,33.43
2019-03-23T06:44:03.730Z,29.47
2019-03-23T06:46:31.121Z,32.10
2019-03-23T06:48:58.530Z,55.13
2019-03-23T06:51:25.920Z,64.63
2019-03-23T06:53:53.328Z,94.93
2019-03-23T06:56:20.718Z,38.23
2019-03-23T06:58:48.133Z,31.57
2019-03-23T07:01:15.520Z,36.73
2019-03-23T07:03:42.909Z,29.53
2019-03-23T07:06:10.339Z,34.10
2019-03-23T07:08:37.722Z,29.40
2019-03-23T07:11:05.216Z,31.10
2019-03-23T07:13:32.595Z,33.30
2019-03-23T07:16:00.022Z,33.80
2019-03-23T07:18:27.410Z,28.97
2019-03-23T07:20:54.830Z,30.97
2019-03-23T07:23:22.226Z,32.67
2019-03-23T07:25:49.725Z,30.70
2019-03-23T07:28:17.114Z,39.30
2019-03-23T07:30:44.535Z,31.07
2019-03-23T07:33:11.918Z,30.20
2019-03-23T07:35:39.339Z,31.60
2019-03-23T07:38:06.728Z,27.33
2019-03-23T07:40:34.150Z,33.50
2019-03-23T07:43:01.538Z,30.30
2019-03-23T07:45:28.958Z,31.33
2019-03-23T07:47:56.353Z,31.50
2019-03-23T07:50:23.749Z,31.23
2019-03-23T07:52:51.137Z,33.80
2019-03-23T07:55:18.568Z,29.32
2019-03-23T07:57:45.951Z,39.60
2019-03-23T08:00:14.937Z,31.83
2019-03-23T08:02:42.321Z,32.90
2019-03-23T08:05:09.805Z,34.50
2019-03-23T08:07:37.202Z,36.93
2019-03-23T08:10:04.889Z,45.93
2019-03-23T08:12:32.309Z,29.63
2019-03-23T08:14:59.753Z,35.00
2019-03-23T08:17:27.156Z,55.10
2019-03-23T08:19:54.566Z,56.10
2019-03-23T08:22:21.956Z,36.00
2019-03-23T08:24:49.367Z,27.50
2019-03-23T08:27:16.755Z,40.87
2019-03-23T08:29:44.174Z,34.40
2019-03-23T08:32:11.569Z,36.40
2019-03-23T08:34:38.974Z,33.80
2019-03-23T08:37:06.365Z,36.10
2019-03-23T08:39:33.755Z,33.07
2019-03-23T08:42:01.171Z,46.10
2019-03-23T08:44:28.553Z,36.23
2019-03-23T08:46:55.972Z,32.90
2019-03-23T08:49:23.363Z,37.80
2019-03-23T08:51:50.777Z,34.23
2019-03-23T08:54:18.162Z,27.47
2019-03-23T08:56:45.581Z,25.50
2019-03-23T08:59:13.055Z,32.20
2019-03-23T09:01:40.469Z,32.83
2019-03-23T09:04:07.857Z,38.03
2019-03-23T09:06:35.282Z,40.77
2019-03-23T09:09:04.233Z,46.43
2019-03-23T09:11:31.723Z,41.23
2019-03-23T09:13:59.105Z,34.70
2019-03-23T09:16:26.533Z,32.00
2019-03-23T09:18:53.908Z,41.33
2019-03-23T09:21:21.344Z,40.90
2019-03-23T09:23:48.731Z,40.43
2019-03-23T09:26:16.149Z,41.10
2019-03-23T09:28:43.539Z,39.57
2019-03-23T09:31:10.958Z,42.33
2019-03-23T09:33:38.415Z,36.57
2019-03-23T09:36:05.907Z,40.17
2019-03-23T09:38:33.423Z,40.63
2019-03-23T09:41:00.834Z,45.10
2019-03-23T09:43:28.222Z,47.33
2019-03-23T09:45:55.641Z,45.07
2019-03-23T09:48:23.025Z,45.53
2019-03-23T09:50:50.437Z,41.20
2019-03-23T09:53:17.821Z,45.10
2019-03-23T09:55:45.248Z,44.67
2019-03-23T09:58:12.633Z,39.57
2019-03-23T10:00:40.054Z,31.67
2019-03-23T10:03:07.462Z,45.80
2019-03-23T10:05:34.857Z,42.87
2019-03-23T10:08:02.314Z,48.30
2019-03-23T10:10:29.725Z,49.10
2019-03-23T10:12:57.115Z,56.03
2019-03-23T10:15:24.503Z,47.93
2019-03-23T10:17:51.922Z,49.57
2019-03-23T10:20:19.311Z,44.30
2019-03-23T10:22:46.720Z,47.53
2019-03-23T10:25:14.110Z,44.60
2019-03-23T10:27:41.530Z,50.53
2019-03-23T10:30:09.786Z,55.50
2019-03-23T10:32:37.206Z,48.40
2019-03-23T10:35:06.263Z,53.37
2019-03-23T10:37:33.673Z,48.20
2019-03-23T10:40:01.064Z,56.43
2019-03-23T10:42:28.545Z,56.73
2019-03-23T10:44:55.929Z,48.33
2019-03-23T10:47:23.369Z,47.77
2019-03-23T10:49:50.734Z,51.87
2019-03-23T10:52:18.157Z,45.10
2019-03-23T10:54:45.542Z,54.53
2019-03-23T10:57:12.974Z,58.27
2019-03-23T10:59:40.354Z,56.93
2019-03-23T11:02:07.775Z,50.03
2019-03-23T11:04:35.165Z,51.90
2019-03-23T11:07:02.578Z,55.13
2019-03-23T11:09:29.971Z,56.37
2019-03-23T11:11:57.383Z,55.90
2019-03-23T11:14:24.767Z,58.57
2019-03-23T11:16:52.181Z,62.93
2019-03-23T11:19:19.570Z,46.80
2019-03-23T11:21:46.989Z,59.13
2019-03-23T11:24:14.372Z,58.30
2019-03-23T11:26:41.794Z,61.90
2019-03-23T11:29:09.192Z,48.10
2019-03-23T11:31:36.617Z,51.30
2019-03-23T11:34:04.098Z,52.50
2019-03-23T11:36:31.510Z,55.03
2019-03-23T11:38:58.889Z,51.73
2019-03-23T11:41:26.340Z,60.60
2019-03-23T11:43:53.734Z,52.30
2019-03-23T11:46:21.117Z,60.90
2019-03-23T11:48:48.530Z,49.50
2019-03-23T11:51:15.913Z,58.60
2019-03-23T11:53:43.449Z,57.83
2019-03-23T11:56:10.842Z,55.87
2019-03-23T11:58:38.299Z,58.00
2019-03-23T12:01:05.692Z,52.03
2019-03-23T12:03:33.115Z,50.90
2019-03-23T12:06:00.494Z,59.23
2019-03-23T12:08:27.905Z,49.20
2019-03-23T12:11:02.745Z,54.10
2019-03-23T12:13:24.355Z,53.40
2019-03-23T12:15:51.741Z,57.57
2019-03-23T12:18:19.152Z,52.00
2019-03-23T12:20:46.543Z,53.40
2019-03-23T12:23:13.969Z,63.13
2019-03-23T12:25:41.347Z,52.97
2019-03-23T12:28:08.770Z,48.80
2019-03-23T12:30:36.158Z,57.30
2019-03-23T12:33:03.571Z,52.97
2019-03-23T12:35:30.965Z,53.95
2019-03-23T12:37:58.372Z,61.40
2019-03-23T12:40:25.765Z,59.23
2019-03-23T12:42:53.185Z,52.83
2019-03-23T12:45:20.586Z,53.70
2019-03-23T12:47:48.000Z,51.63
2019-03-23T12:50:15.388Z,52.73
2019-03-23T12:52:42.802Z,43.83
2019-03-23T12:55:10.255Z,50.47
2019-03-23T12:57:37.674Z,52.90
2019-03-23T13:00:06.603Z,53.40
2019-03-23T13:02:34.015Z,57.07
2019-03-23T13:05:01.402Z,51.53
2019-03-23T13:07:28.820Z,58.53
2019-03-23T13:09:56.207Z,51.87
2019-03-23T13:12:23.625Z,54.30
2019-03-23T13:14:51.017Z,55.13
2019-03-23T13:17:18.437Z,51.43
2019-03-23T13:19:45.821Z,49.17
2019-03-23T13:22:13.241Z,52.20
2019-03-23T13:24:40.632Z,56.03
2019-03-23T13:27:08.024Z,52.73
2019-03-23T13:29:35.430Z,43.13
2019-03-23T13:32:02.894Z,56.47
2019-03-23T13:34:30.305Z,58.80
2019-03-23T13:36:57.705Z,56.73
2019-03-23T13:39:25.120Z,57.10
2019-03-23T13:41:52.509Z,54.63
2019-03-23T13:44:19.937Z,55.07
2019-03-23T13:46:47.325Z,63.63
2019-03-23T13:49:14.742Z,53.10
2019-03-23T13:51:42.141Z,61.10
2019-03-23T13:54:09.556Z,58.80
2019-03-23T13:56:36.950Z,51.83
2019-03-23T13:59:04.377Z,63.10
2019-03-23T14:01:31.760Z,56.53
2019-03-23T14:03:59.175Z,56.77
2019-03-23T14:06:26.574Z,53.90
2019-03-23T14:08:53.993Z,50.80
2019-03-23T14:11:21.385Z,52.97
2019-03-23T14:13:48.801Z,57.50
2019-03-23T14:16:16.196Z,51.53
2019-03-23T14:18:43.604Z,57.90
2019-03-23T14:21:11.005Z,55.93
2019-03-23T14:23:38.436Z,56.27
2019-03-23T14:26:05.915Z,51.03
2019-03-23T14:28:33.320Z,57.67
2019-03-23T14:31:00.713Z,63.40
2019-03-23T14:33:28.119Z,55.23
2019-03-23T14:35:55.584Z,61.50
2019-03-23T14:38:23.000Z,58.23
2019-03-23T14:40:50.401Z,50.00
2019-03-23T14:43:17.815Z,57.00
2019-03-23T14:45:45.219Z,59.60
2019-03-23T14:48:12.630Z,55.70
2019-03-23T14:50:40.026Z,51.60
2019-03-23T14:53:07.414Z,53.47
2019-03-23T14:55:34.828Z,53.23
2019-03-23T14:58:02.217Z,56.40
2019-03-23T15:00:30.214Z,58.43
2019-03-23T15:02:57.605Z,51.83
2019-03-23T15:05:25.026Z,59.00
2019-03-23T15:07:52.413Z,50.70
2019-03-23T15:10:19.820Z,53.83
2019-03-23T15:12:47.285Z,47.23
2019-03-23T15:15:14.692Z,50.63
2019-03-23T15:17:48.712Z,51.33
2019-03-23T15:20:11.217Z,58.50
2019-03-23T15:22:38.672Z,56.30
2019-03-23T15:25:06.159Z,48.50
2019-03-23T15:27:33.549Z,46.93
2019-03-23T15:30:00.967Z,52.37
2019-03-23T15:32:28.350Z,54.80
2019-03-23T15:34:55.769Z,57.03
2019-03-23T15:37:23.154Z,63.80
2019-03-23T15:39:50.569Z,59.03
2019-03-23T15:42:24.703Z,62.43
2019-03-23T15:44:47.022Z,65.67
2019-03-23T15:47:14.405Z,67.17
2019-03-23T15:49:41.831Z,62.87
2019-03-23T15:52:09.214Z,55.07
2019-03-23T15:54:36.632Z,62.83
2019-03-23T15:57:04.021Z,61.30
2019-03-23T15:59:31.520Z,65.00
2019-03-23T16:01:58.907Z,58.17
2019-03-23T16:04:26.320Z,67.90
2019-03-23T16:06:53.714Z,70.80
2019-03-23T16:09:21.119Z,59.93
2019-03-23T16:11:48.509Z,73.43
2019-03-23T16:14:15.973Z,69.13
2019-03-23T16:16:43.392Z,61.70
2019-03-23T16:19:10.781Z,64.03
2019-03-23T16:21:38.199Z,58.93
2019-03-23T16:24:05.600Z,67.90
2019-03-23T16:26:33.042Z,61.67
2019-03-23T16:29:00.430Z,64.07
2019-03-23T16:31:27.863Z,62.83
2019-03-23T16:33:55.245Z,67.27
2019-03-23T16:36:22.674Z,72.53
2019-03-23T16:38:50.066Z,64.13
2019-03-23T16:41:17.479Z,52.93
2019-03-23T16:43:44.871Z,57.20
2019-03-23T16:46:12.292Z,63.00
2019-03-23T16:48:39.691Z,57.80
2019-03-23T16:51:07.111Z,60.03
2019-03-23T16:53:34.570Z,56.50
2019-03-23T16:56:01.991Z,58.60
2019-03-23T16:58:29.446Z,62.53
2019-03-23T17:00:56.933Z,60.40
2019-03-23T17:03:24.362Z,61.83
2019-03-23T17:05:51.856Z,57.20
2019-03-23T17:08:19.249Z,54.53
2019-03-23T17:10:46.665Z,67.93
2019-03-23T17:13:14.058Z,73.87
2019-03-23T17:15:41.482Z,52.33
2019-03-23T17:18:08.878Z,60.00
2019-03-23T17:20:36.319Z,62.50
2019-03-23T17:23:03.695Z,70.60
2019-03-23T17:25:31.582Z,62.53
2019-03-23T17:27:58.949Z,66.87
2019-03-23T17:30:26.364Z,75.87
2019-03-23T17:32:53.759Z,74.23
2019-03-23T17:35:21.141Z,64.83
2019-03-23T17:37:48.559Z,75.93
2019-03-23T17:40:15.944Z,66.13
2019-03-23T17:42:43.365Z,68.00
2019-03-23T17:45:10.742Z,73.20
2019-03-23T17:47:38.154Z,75.50
2019-03-23T17:50:05.826Z,77.87
2019-03-23T17:52:33.229Z,82.80
2019-03-23T17:55:00.623Z,73.83
2019-03-23T17:57:28.032Z,65.43
2019-03-23T17:59:55.728Z,73.53
2019-03-23T18:02:23.069Z,79.37
2019-03-23T18:04:50.456Z,85.33
2019-03-23T18:07:17.880Z,78.13
2019-03-23T18:09:45.272Z,81.37
2019-03-23T18:12:12.681Z,76.30
2019-03-23T18:14:40.083Z,80.00
2019-03-23T18:17:07.484Z,88.13
2019-03-23T18:19:34.873Z,80.90
2019-03-23T18:22:02.291Z,76.47
2019-03-23T18:24:29.676Z,81.77
2019-03-23T18:26:57.092Z,78.10
2019-03-23T18:29:24.483Z,78.10
2019-03-23T18:31:51.892Z,83.57
2019-03-23T18:34:19.300Z,81.17
2019-03-23T18:36:46.781Z,82.50
2019-03-23T18:39:14.159Z,94.13
2019-03-23T18:41:41.582Z,76.07
2019-03-23T18:44:16.128Z,77.50
2019-03-23T18:46:38.197Z,81.23
2019-03-23T18:49:05.692Z,90.10
2019-03-23T18:51:33.214Z,81.77
2019-03-23T18:54:00.607Z,84.90
2019-03-23T18:56:28.020Z,84.03
2019-03-23T18:58:55.414Z,91.73
2019-03-23T19:01:22.842Z,95.57
2019-03-23T19:03:50.232Z,84.33
2019-03-23T19:06:17.615Z,86.10
2019-03-23T19:08:45.271Z,87.77
2019-03-23T19:11:14.866Z,90.47
2019-03-23T19:13:41.688Z,77.23
2019-03-23T19:16:09.081Z,79.30
2019-03-23T19:18:36.498Z,84.23
2019-03-23T19:21:03.978Z,71.13
2019-03-23T19:23:31.369Z,72.30
2019-03-23T19:25:58.751Z,74.23
2019-03-23T19:28:26.170Z,80.80
2019-03-23T19:30:53.582Z,71.97
2019-03-23T19:33:21.045Z,74.30
2019-03-23T19:35:48.407Z,78.07
2019-03-23T19:38:18.039Z,76.50
2019-03-23T19:40:45.019Z,76.80
2019-03-23T19:43:12.441Z,83.43
2019-03-23T19:45:39.835Z,80.50
2019-03-23T19:48:07.254Z,81.17
2019-03-23T19:50:34.638Z,82.63
2019-03-23T19:53:02.062Z,83.83
2019-03-23T19:55:29.449Z,95.67
2019-03-23T19:57:56.873Z,80.57
2019-03-23T20:00:24.262Z,81.67
2019-03-23T20:02:51.676Z,72.97
2019-03-23T20:05:19.066Z,78.37
2019-03-23T20:07:46.483Z,77.73
2019-03-23T20:10:14.033Z,69.83
2019-03-23T20:12:41.455Z,77.77
2019-03-23T20:15:09.318Z,86.40
2019-03-23T20:17:36.796Z,79.53
2019-03-23T20:20:05.738Z,80.23
2019-03-23T20:22:33.228Z,82.80
2019-03-23T20:25:00.627Z,81.00
2019-03-23T20:27:28.005Z,84.80
2019-03-23T20:29:55.423Z,74.50
2019-03-23T20:32:22.802Z,77.97
2019-03-23T20:34:50.213Z,72.53
2019-03-23T20:37:17.616Z,73.27
2019-03-23T20:39:45.027Z,79.43
2019-03-23T20:42:12.415Z,82.60
2019-03-23T20:44:39.846Z,79.33
2019-03-23T20:47:07.303Z,88.37
2019-03-23T20:49:34.717Z,75.20
2019-03-23T20:52:02.183Z,102.33
2019-03-23T20:54:29.774Z,75.30
2019-03-23T20:56:57.159Z,90.47
2019-03-23T20:59:24.580Z,80.20
2019-03-23T21:01:52.002Z,78.87
2019-03-23T21:04:19.488Z,72.93
2019-03-23T21:06:46.881Z,77.87
2019-03-23T21:09:14.291Z,81.13
2019-03-23T21:11:41.674Z,82.53
2019-03-23T21:14:19.644Z,83.57
2019-03-23T21:16:38.130Z,81.27
2019-03-23T21:19:05.541Z,96.50
2019-03-23T21:21:32.938Z,93.87
2019-03-23T21:24:00.357Z,85.07
2019-03-23T21:26:27.751Z,95.93
2019-03-23T21:28:55.163Z,95.47
2019-03-23T21:31:22.567Z,91.27
2019-03-23T21:33:49.968Z,86.10
2019-03-23T21:36:17.350Z,94.90
2019-03-23T21:38:44.765Z,93.27
2019-03-23T21:41:12.225Z,85.23
2019-03-23T21:43:39.654Z,104.90
2019-03-23T21:46:07.046Z,91.50
2019-03-23T21:48:34.481Z,88.00
2019-03-23T21:51:01.912Z,97.47
2019-03-23T21:53:29.369Z,105.67
2019-03-23T21:55:56.798Z,101.40
2019-03-23T21:58:24.278Z,105.23
2019-03-23T22:00:51.769Z,98.30
2019-03-23T22:03:19.189Z,98.50
2019-03-23T22:05:46.608Z,93.53
2019-03-23T22:08:14.005Z,99.47
2019-03-23T22:10:41.493Z,94.27
2019-03-23T22:13:08.881Z,98.00
2019-03-23T22:15:36.300Z,89.47
2019-03-23T22:18:03.838Z,104.20
2019-03-23T22:20:31.264Z,94.53
2019-03-23T22:22:58.768Z,81.63
2019-03-23T22:25:26.243Z,99.30
2019-03-23T22:27:53.665Z,102.57
2019-03-23T22:30:21.092Z,95.87
2019-03-23T22:32:48.547Z,99.47
2019-03-23T22:35:15.966Z,106.70
2019-03-23T22:37:43.350Z,93.17
2019-03-23T22:40:10.941Z,89.93
2019-03-23T22:42:38.345Z,99.37
2019-03-23T22:45:08.976Z,113.73
2019-03-23T22:47:36.437Z,88.40
2019-03-23T22:50:05.559Z,90.17
2019-03-23T22:52:32.945Z,99.83
2019-03-23T22:55:00.437Z,107.30
2019-03-23T22:57:27.837Z,94.90
2019-03-23T22:59:55.251Z,87.67
2019-03-23T23:02:22.653Z,90.87
2019-03-23T23:04:50.106Z,90.80
2019-03-23T23:07:17.495Z,95.90
2019-03-23T23:09:44.925Z,96.57
2019-03-23T23:12:12.377Z,80.87
2019-03-23T23:14:39.785Z,96.43
2019-03-23T23:17:07.174Z,99.43
2019-03-23T23:19:34.584Z,92.63
2019-03-23T23:22:02.040Z,90.77
2019-03-23T23:24:29.439Z,104.83
2019-03-23T23:26:56.849Z,88.70
2019-03-23T23:29:24.246Z,96.07
2019-03-23T23:31:51.667Z,112.20
2019-03-23T23:34:19.045Z,99.03
2019-03-23T23:36:46.538Z,100.13
2019-03-23T23:39:13.928Z,103.10
2019-03-23T23:41:41.399Z,94.40
2019-03-23T23:44:08.792Z,98.87
2019-03-23T23:46:36.214Z,102.37
2019-03-23T23:49:03.679Z,92.30
2019-03-23T23:51:31.088Z,98.57
2019-03-23T23:53:58.478Z,106.30
2019-03-23T23:56:25.896Z,100.13
2019-03-23T23:58:53.284Z,109.07
